createdAt,value
2019-02-25T00:00:20.840Z,70.00
2019-02-25T00:02:47.501Z,68.80
2019-02-25T00:05:14.173Z,68.40
2019-02-25T00:07:40.829Z,68.40
2019-02-25T00:10:08.352Z,68.30
2019-02-25T00:12:34.995Z,68.20
2019-02-25T00:15:01.894Z,68.50
2019-02-25T00:17:28.751Z,68.90
2019-02-25T00:19:55.414Z,68.70
2019-02-25T00:22:22.062Z,68.90
2019-02-25T00:24:48.728Z,69.10
2019-02-25T00:27:15.453Z,69.10
2019-02-25T00:29:42.117Z,68.90
2019-02-25T00:32:08.731Z,69.20
2019-02-25T00:34:35.406Z,72.20
2019-02-25T00:37:02.104Z,72.30
2019-02-25T00:39:28.723Z,72.20
2019-02-25T00:41:55.524Z,73.70
2019-02-25T00:44:22.138Z,75.80
2019-02-25T00:46:48.779Z,78.10
2019-02-25T00:49:15.556Z,75.70
2019-02-25T00:51:42.169Z,73.50
2019-02-25T00:54:08.920Z,72.40
2019-02-25T00:56:35.540Z,72.30
2019-02-25T00:59:02.304Z,71.70
2019-02-25T01:01:28.979Z,71.70
2019-02-25T01:03:55.695Z,71.10
2019-02-25T01:06:22.352Z,71.50
2019-02-25T01:08:48.977Z,71.30
2019-02-25T01:11:15.644Z,70.90
2019-02-25T01:13:43.199Z,71.20
2019-02-25T01:16:09.869Z,73.40
2019-02-25T01:18:36.484Z,75.20
2019-02-25T01:21:03.204Z,74.50
2019-02-25T01:23:29.968Z,74.70
2019-02-25T01:25:56.588Z,75.50
2019-02-25T01:28:23.250Z,76.10
2019-02-25T01:30:49.964Z,76.70
2019-02-25T01:33:16.636Z,77.50
2019-02-25T01:35:44.032Z,76.10
2019-02-25T01:38:10.731Z,74.50
2019-02-25T01:40:37.359Z,73.50
2019-02-25T01:43:04.014Z,73.10
2019-02-25T01:45:30.676Z,73.20
2019-02-25T01:47:57.416Z,75.20
2019-02-25T01:50:24.105Z,75.30
2019-02-25T01:52:50.760Z,73.90
2019-02-25T01:55:17.400Z,73.50
2019-02-25T01:57:44.173Z,73.40
2019-02-25T02:00:15.727Z,73.50
2019-02-25T02:02:42.366Z,73.30
2019-02-25T02:05:09.385Z,73.10
2019-02-25T02:07:36.044Z,74.10
2019-02-25T02:10:04.784Z,76.00
2019-02-25T02:12:32.215Z,77.70
2019-02-25T02:14:59.111Z,76.90
2019-02-25T02:17:25.791Z,78.70
2019-02-25T02:19:52.348Z,78.90
2019-02-25T02:22:19.123Z,77.60
2019-02-25T02:24:45.749Z,76.20
2019-02-25T02:27:12.363Z,77.80
2019-02-25T02:29:39.016Z,80.10
2019-02-25T02:32:05.720Z,78.40
2019-02-25T02:34:32.397Z,76.50
2019-02-25T02:36:59.044Z,76.50
2019-02-25T02:39:25.710Z,75.70
2019-02-25T02:42:10.148Z,74.90
2019-02-25T02:44:36.860Z,75.00
2019-02-25T02:47:23.781Z,75.30
2019-02-25T02:49:50.472Z,76.00
2019-02-25T02:52:17.116Z,75.50
2019-02-25T02:54:43.734Z,74.90
2019-02-25T02:57:10.328Z,74.40
2019-02-25T02:59:36.988Z,74.40
2019-02-25T03:02:03.642Z,74.30
2019-02-25T03:04:30.303Z,75.20
2019-02-25T03:06:56.976Z,75.30
2019-02-25T03:09:23.786Z,74.90
2019-02-25T03:11:50.359Z,74.90
2019-02-25T03:14:17.054Z,75.60
2019-02-25T03:16:43.756Z,78.50
2019-02-25T03:19:10.384Z,78.20
2019-02-25T03:21:56.779Z,77.20
2019-02-25T03:24:23.454Z,77.10
2019-02-25T03:26:50.099Z,77.50
2019-02-25T03:29:16.769Z,76.30
2019-02-25T03:31:43.332Z,77.70
2019-02-25T03:34:09.954Z,79.00
2019-02-25T03:36:36.604Z,79.00
2019-02-25T03:39:05.795Z,78.90
2019-02-25T03:41:32.901Z,78.80
2019-02-25T03:43:59.971Z,80.00
2019-02-25T03:46:26.627Z,82.10
2019-02-25T03:48:53.243Z,83.50
2019-02-25T03:51:19.896Z,82.80
2019-02-25T03:53:46.524Z,83.70
2019-02-25T03:56:13.236Z,81.40
2019-02-25T03:58:39.876Z,79.00
2019-02-25T04:01:06.624Z,78.90
2019-02-25T04:03:33.335Z,80.60
2019-02-25T04:06:00.187Z,80.70
2019-02-25T04:08:26.755Z,82.70
2019-02-25T04:10:53.517Z,82.70
2019-02-25T04:13:20.198Z,81.90
2019-02-25T04:15:46.954Z,83.30
2019-02-25T04:18:13.597Z,84.40
2019-02-25T04:20:40.226Z,85.00
2019-02-25T04:23:06.881Z,83.90
2019-02-25T04:25:33.531Z,81.20
2019-02-25T04:28:00.185Z,79.80
2019-02-25T04:30:26.829Z,80.00
2019-02-25T04:32:53.496Z,78.80
2019-02-25T04:35:20.149Z,78.40
2019-02-25T04:37:46.816Z,78.30
2019-02-25T04:40:13.851Z,81.10
2019-02-25T04:42:40.624Z,80.40
2019-02-25T04:45:10.071Z,79.90
2019-02-25T04:47:36.778Z,79.40
2019-02-25T04:50:04.700Z,78.90
2019-02-25T04:52:31.395Z,78.70
2019-02-25T04:54:58.017Z,79.80
2019-02-25T04:57:24.672Z,79.00
2019-02-25T04:59:51.328Z,78.50
2019-02-25T05:02:17.948Z,79.30
2019-02-25T05:04:44.599Z,79.10
2019-02-25T05:07:11.228Z,79.50
2019-02-25T05:09:37.903Z,79.30
2019-02-25T05:12:06.564Z,80.00
2019-02-25T05:14:33.102Z,79.70
2019-02-25T05:16:59.727Z,80.60
2019-02-25T05:19:26.413Z,78.90
2019-02-25T05:21:53.042Z,78.80
2019-02-25T05:24:19.712Z,80.00
2019-02-25T05:26:46.390Z,82.40
2019-02-25T05:29:13.123Z,81.60
2019-02-25T05:31:39.724Z,81.00
2019-02-25T05:34:06.373Z,80.60
2019-02-25T05:36:33.023Z,80.60
2019-02-25T05:38:59.698Z,82.20
2019-02-25T05:41:26.340Z,80.80
2019-02-25T05:43:52.999Z,80.20
2019-02-25T05:46:19.649Z,80.10
2019-02-25T05:48:46.336Z,83.90
2019-02-25T05:51:13.027Z,83.60
2019-02-25T05:53:39.653Z,82.50
2019-02-25T05:56:06.305Z,82.50
2019-02-25T05:58:32.919Z,82.60
2019-02-25T06:01:00.651Z,84.50
2019-02-25T06:03:27.293Z,85.60
2019-02-25T06:05:53.973Z,84.20
2019-02-25T06:08:20.692Z,84.60
2019-02-25T06:10:47.481Z,83.20
2019-02-25T06:13:14.130Z,81.90
2019-02-25T06:15:40.814Z,82.20
2019-02-25T06:18:07.537Z,82.20
2019-02-25T06:20:34.354Z,81.80
2019-02-25T06:23:00.969Z,82.20
2019-02-25T06:25:27.669Z,85.80
2019-02-25T06:27:54.306Z,88.10
2019-02-25T06:30:21.717Z,86.60
2019-02-25T06:32:48.464Z,84.20
2019-02-25T06:35:15.209Z,83.00
2019-02-25T06:37:41.868Z,83.00
2019-02-25T06:40:11.040Z,82.40
2019-02-25T06:42:37.807Z,81.60
2019-02-25T06:45:09.968Z,82.30
2019-02-25T06:47:36.714Z,82.00
2019-02-25T06:50:06.290Z,82.60
2019-02-25T06:52:33.045Z,83.60
2019-02-25T06:54:59.691Z,85.70
2019-02-25T06:57:26.319Z,86.50
2019-02-25T06:59:52.989Z,84.80
2019-02-25T07:02:19.610Z,85.20
2019-02-25T07:04:48.152Z,87.30
2019-02-25T07:07:16.765Z,85.80
2019-02-25T07:09:45.305Z,83.40
2019-02-25T07:12:16.666Z,78.50
2019-02-25T07:15:00.046Z,72.50
2019-02-25T07:17:28.595Z,72.70
2019-02-25T07:20:03.135Z,77.10
2019-02-25T07:22:40.829Z,79.50
2019-02-25T07:25:09.416Z,80.10
2019-02-25T07:27:46.704Z,80.60
2019-02-25T07:30:15.251Z,81.50
2019-02-25T07:32:46.406Z,80.30
2019-02-25T07:35:14.938Z,80.00
2019-02-25T07:37:52.132Z,81.00
2019-02-25T07:40:20.673Z,82.10
2019-02-25T07:42:51.786Z,81.20
2019-02-25T07:45:20.316Z,80.50
2019-02-25T07:47:48.880Z,79.30
2019-02-25T07:50:29.227Z,80.00
2019-02-25T07:52:57.844Z,79.90
2019-02-25T07:55:29.140Z,79.60
2019-02-25T07:58:03.733Z,81.30
2019-02-25T08:00:32.256Z,79.50
2019-02-25T08:03:06.599Z,78.90
2019-02-25T08:05:40.646Z,77.80
2019-02-25T08:08:12.234Z,76.10
2019-02-25T08:10:40.748Z,75.60
2019-02-25T08:13:09.309Z,75.40
2019-02-25T08:15:43.839Z,74.30
2019-02-25T08:18:12.388Z,74.10
2019-02-25T08:20:44.024Z,75.10
2019-02-25T08:23:27.727Z,75.10
2019-02-25T08:26:14.389Z,74.80
2019-02-25T08:28:45.803Z,72.70
2019-02-25T08:31:30.999Z,72.40
2019-02-25T08:34:05.304Z,72.40
2019-02-25T08:37:12.666Z,72.30
2019-02-25T08:39:42.524Z,71.90
2019-02-25T08:42:14.288Z,71.10
2019-02-25T08:44:42.823Z,71.00
2019-02-25T08:47:17.404Z,71.00
2019-02-25T08:49:45.944Z,69.50
2019-02-25T08:52:12.620Z,69.40
2019-02-25T08:54:39.253Z,69.30
2019-02-25T08:57:05.947Z,68.40
2019-02-25T08:59:32.670Z,68.70
2019-02-25T09:01:59.341Z,68.10
2019-02-25T09:04:25.980Z,69.70
2019-02-25T09:06:52.690Z,69.50
2019-02-25T09:09:19.288Z,69.90
2019-02-25T09:11:45.966Z,67.80
2019-02-25T09:14:13.603Z,68.50
2019-02-25T09:16:40.165Z,68.40
2019-02-25T09:19:06.830Z,69.10
2019-02-25T09:21:33.479Z,67.60
2019-02-25T09:24:00.129Z,67.90
2019-02-25T09:26:26.813Z,67.80
2019-02-25T09:28:53.495Z,66.00
2019-02-25T09:31:20.130Z,67.00
2019-02-25T09:33:46.806Z,65.30
2019-02-25T09:36:13.439Z,65.20
2019-02-25T09:38:40.118Z,65.00
2019-02-25T09:41:06.885Z,64.60
2019-02-25T09:43:33.605Z,64.10
2019-02-25T09:46:00.224Z,63.80
2019-02-25T09:48:26.966Z,63.50
2019-02-25T09:50:53.678Z,63.00
2019-02-25T09:53:20.294Z,62.40
2019-02-25T09:55:46.924Z,62.00
2019-02-25T09:58:13.591Z,62.10
2019-02-25T10:00:40.241Z,59.10
2019-02-25T10:03:06.909Z,59.30
2019-02-25T10:05:33.620Z,59.30
2019-02-25T10:08:00.251Z,59.30
2019-02-25T10:10:26.827Z,58.60
2019-02-25T10:12:53.459Z,57.10
2019-02-25T10:15:27.225Z,57.20
2019-02-25T10:17:53.890Z,55.40
2019-02-25T10:20:20.562Z,55.50
2019-02-25T10:22:47.196Z,54.80
2019-02-25T10:25:13.857Z,54.00
2019-02-25T10:27:40.544Z,53.40
2019-02-25T10:30:10.445Z,53.00
2019-02-25T10:32:37.090Z,53.70
2019-02-25T10:35:07.063Z,53.00
2019-02-25T10:37:34.284Z,53.30
2019-02-25T10:40:01.357Z,51.80
2019-02-25T10:42:29.412Z,51.00
2019-02-25T10:44:56.569Z,50.10
2019-02-25T10:47:23.248Z,50.60
2019-02-25T10:49:49.915Z,49.20
2019-02-25T10:52:17.351Z,49.40
2019-02-25T10:54:44.089Z,50.30
2019-02-25T10:57:10.757Z,49.20
2019-02-25T10:59:39.531Z,47.90
2019-02-25T11:02:06.032Z,47.40
2019-02-25T11:04:32.658Z,47.50
2019-02-25T11:07:00.797Z,47.20
2019-02-25T11:09:32.208Z,46.40
2019-02-25T11:12:00.165Z,46.20
2019-02-25T11:14:27.032Z,46.20
2019-02-25T11:16:53.779Z,45.80
2019-02-25T11:19:22.332Z,44.20
2019-02-25T11:21:48.900Z,45.80
2019-02-25T11:24:16.688Z,43.90
2019-02-25T11:26:44.107Z,43.30
2019-02-25T11:29:11.772Z,42.00
2019-02-25T11:31:39.325Z,42.80
2019-02-25T11:34:08.009Z,41.90
2019-02-25T11:36:34.439Z,41.60
2019-02-25T11:39:02.455Z,41.40
2019-02-25T11:41:30.123Z,40.90
2019-02-25T11:43:58.086Z,39.80
2019-02-25T11:46:24.794Z,38.90
2019-02-25T11:48:52.433Z,38.90
2019-02-25T11:51:19.146Z,38.50
2019-02-25T11:53:45.773Z,38.30
2019-02-25T11:56:12.433Z,39.90
2019-02-25T11:58:39.051Z,39.20
2019-02-25T12:01:05.811Z,38.60
2019-02-25T12:03:32.462Z,36.60
2019-02-25T12:05:59.236Z,37.00
2019-02-25T12:08:25.849Z,38.50
2019-02-25T12:10:52.627Z,37.30
2019-02-25T12:13:19.248Z,36.60
2019-02-25T12:15:46.302Z,36.50
2019-02-25T12:18:12.961Z,37.30
2019-02-25T12:20:39.608Z,36.30
2019-02-25T12:23:06.276Z,36.20
2019-02-25T12:25:32.953Z,36.60
2019-02-25T12:27:59.608Z,36.40
2019-02-25T12:30:27.155Z,35.70
2019-02-25T12:32:53.940Z,35.40
2019-02-25T12:35:20.594Z,35.40
2019-02-25T12:37:47.243Z,35.40
2019-02-25T12:40:16.009Z,35.60
2019-02-25T12:42:42.628Z,35.90
2019-02-25T12:45:11.509Z,35.90
2019-02-25T12:47:38.199Z,35.30
2019-02-25T12:50:08.084Z,35.40
2019-02-25T12:52:34.706Z,36.00
2019-02-25T12:55:01.364Z,35.60
2019-02-25T12:57:28.017Z,36.10
2019-02-25T12:59:54.776Z,35.60
2019-02-25T13:02:21.523Z,35.10
2019-02-25T13:04:48.177Z,35.60
2019-02-25T13:07:14.833Z,36.00
2019-02-25T13:09:41.482Z,36.60
2019-02-25T13:12:08.099Z,36.10
2019-02-25T13:14:34.795Z,35.80
2019-02-25T13:17:01.413Z,35.60
2019-02-25T13:19:28.056Z,35.60
2019-02-25T13:21:54.733Z,35.60
2019-02-25T13:24:21.360Z,36.30
2019-02-25T13:26:48.076Z,36.00
2019-02-25T13:29:14.705Z,36.10
2019-02-25T13:31:41.357Z,36.00
2019-02-25T13:34:07.985Z,37.60
2019-02-25T13:36:34.668Z,37.10
2019-02-25T13:39:01.283Z,38.00
2019-02-25T13:41:27.983Z,38.70
2019-02-25T13:43:54.604Z,39.10
2019-02-25T13:46:21.588Z,39.00
2019-02-25T13:48:48.202Z,39.20
2019-02-25T13:51:14.863Z,39.10
2019-02-25T13:53:41.499Z,39.00
2019-02-25T13:56:08.264Z,38.60
2019-02-25T13:58:34.921Z,38.40
2019-02-25T14:01:01.689Z,39.20
2019-02-25T14:03:28.418Z,38.60
2019-02-25T14:05:55.239Z,38.50
2019-02-25T14:08:22.115Z,38.50
2019-02-25T14:10:48.728Z,37.80
2019-02-25T14:13:15.631Z,38.20
2019-02-25T14:15:42.270Z,38.50
2019-02-25T14:18:08.944Z,38.60
2019-02-25T14:20:35.577Z,39.30
2019-02-25T14:23:02.357Z,39.30
2019-02-25T14:25:30.213Z,39.30
2019-02-25T14:27:57.329Z,39.40
2019-02-25T14:30:25.160Z,39.90
2019-02-25T14:32:53.499Z,40.40
2019-02-25T14:35:28.025Z,40.80
2019-02-25T14:37:57.647Z,41.20
2019-02-25T14:40:26.240Z,41.70
2019-02-25T14:42:54.710Z,42.10
2019-02-25T14:45:22.454Z,42.90
2019-02-25T14:47:55.349Z,42.90
2019-02-25T14:50:21.892Z,43.60
2019-02-25T14:52:48.849Z,43.60
2019-02-25T14:55:15.710Z,43.60
2019-02-25T14:57:43.711Z,44.00
2019-02-25T15:00:23.451Z,44.40
2019-02-25T15:02:50.386Z,44.80
2019-02-25T15:05:18.907Z,45.30
2019-02-25T15:07:46.754Z,45.80
2019-02-25T15:10:14.413Z,46.00
2019-02-25T15:12:41.172Z,46.30
2019-02-25T15:15:15.696Z,46.30
2019-02-25T15:17:43.704Z,46.30
2019-02-25T15:20:14.715Z,46.70
2019-02-25T15:22:41.198Z,47.00
2019-02-25T15:25:11.073Z,48.00
2019-02-25T15:27:37.728Z,47.30
2019-02-25T15:30:13.485Z,48.20
2019-02-25T15:32:41.959Z,48.40
2019-02-25T15:35:10.512Z,47.00
2019-02-25T15:37:37.711Z,48.10
2019-02-25T15:40:09.843Z,47.20
2019-02-25T15:42:38.406Z,47.30
2019-02-25T15:45:21.407Z,47.00
2019-02-25T15:47:48.957Z,46.90
2019-02-25T15:50:17.323Z,47.60
2019-02-25T15:52:43.944Z,48.40
2019-02-25T15:55:14.928Z,48.10
2019-02-25T15:57:42.193Z,48.50
2019-02-25T16:00:19.056Z,49.00
2019-02-25T16:02:50.432Z,49.10
2019-02-25T16:05:17.245Z,49.90
2019-02-25T16:07:43.877Z,49.80
2019-02-25T16:10:12.003Z,49.80
2019-02-25T16:12:39.550Z,49.80
2019-02-25T16:15:14.977Z,50.20
2019-02-25T16:17:46.325Z,50.10
2019-02-25T16:20:17.537Z,50.50
2019-02-25T16:22:44.318Z,52.30
2019-02-25T16:25:13.419Z,53.70
2019-02-25T16:27:41.205Z,54.90
2019-02-25T16:30:13.871Z,55.40
2019-02-25T16:32:42.093Z,55.90
2019-02-25T16:35:10.897Z,56.50
2019-02-25T16:37:37.600Z,57.90
2019-02-25T16:40:08.827Z,57.80
2019-02-25T16:42:36.862Z,58.10
2019-02-25T16:45:09.570Z,58.30
2019-02-25T16:47:37.718Z,58.40
2019-02-25T16:50:07.554Z,59.70
2019-02-25T16:52:36.068Z,59.80
2019-02-25T16:55:05.283Z,60.20
2019-02-25T16:57:31.957Z,61.20
2019-02-25T16:59:59.895Z,61.40
2019-02-25T17:02:27.472Z,60.50
2019-02-25T17:04:55.501Z,60.70
2019-02-25T17:07:22.722Z,61.60
2019-02-25T17:09:50.624Z,62.10
2019-02-25T17:12:17.444Z,64.10
2019-02-25T17:14:44.372Z,63.50
2019-02-25T17:17:11.137Z,64.30
2019-02-25T17:19:38.511Z,64.00
2019-02-25T17:22:05.477Z,64.60
2019-02-25T17:24:32.611Z,65.20
2019-02-25T17:27:02.030Z,66.80
2019-02-25T17:29:31.229Z,66.20
2019-02-25T17:31:59.589Z,67.00
2019-02-25T17:34:26.360Z,66.40
2019-02-25T17:36:54.610Z,67.60
2019-02-25T17:39:21.648Z,69.30
2019-02-25T17:41:48.308Z,68.90
2019-02-25T17:44:14.964Z,67.80
2019-02-25T17:46:43.352Z,68.70
2019-02-25T17:49:12.156Z,69.30
2019-02-25T17:51:38.815Z,69.20
2019-02-25T17:54:06.273Z,67.60
2019-02-25T17:56:34.074Z,67.10
2019-02-25T17:59:02.773Z,66.70
2019-02-25T18:01:29.529Z,67.70
2019-02-25T18:03:56.484Z,69.00
2019-02-25T18:06:27.335Z,68.70
2019-02-25T18:08:53.527Z,68.20
2019-02-25T18:11:22.374Z,68.00
2019-02-25T18:13:49.494Z,68.00
2019-02-25T18:16:18.932Z,68.50
2019-02-25T18:18:45.850Z,67.80
2019-02-25T18:21:14.356Z,67.70
2019-02-25T18:23:40.988Z,67.80
2019-02-25T18:26:07.657Z,67.70
2019-02-25T18:28:34.883Z,67.50
2019-02-25T18:31:04.398Z,67.80
2019-02-25T18:33:31.426Z,69.20
2019-02-25T18:36:00.212Z,68.50
2019-02-25T18:38:27.345Z,67.70
2019-02-25T18:40:55.601Z,67.70
2019-02-25T18:43:24.137Z,68.20
2019-02-25T18:45:50.738Z,69.00
2019-02-25T18:48:18.896Z,70.20
2019-02-25T18:50:49.423Z,69.60
2019-02-25T18:53:16.111Z,69.80
2019-02-25T18:55:43.129Z,72.40
2019-02-25T18:58:11.918Z,72.70
2019-02-25T19:00:41.888Z,73.40
2019-02-25T19:03:08.312Z,71.80
2019-02-25T19:05:35.885Z,70.90
2019-02-25T19:08:09.661Z,70.50
2019-02-25T19:10:36.085Z,70.30
2019-02-25T19:13:03.121Z,70.70
2019-02-25T19:15:30.156Z,70.50
2019-02-25T19:17:56.812Z,71.80
2019-02-25T19:20:24.185Z,73.20
2019-02-25T19:22:51.013Z,74.90
2019-02-25T19:25:19.993Z,74.70
2019-02-25T19:27:47.454Z,75.60
2019-02-25T19:30:19.584Z,77.20
2019-02-25T19:32:45.282Z,77.80
2019-02-25T19:35:12.134Z,78.20
2019-02-25T19:37:40.554Z,76.20
2019-02-25T19:40:22.548Z,74.20
2019-02-25T19:42:51.572Z,73.60
2019-02-25T19:45:18.247Z,73.40
2019-02-25T19:47:47.049Z,76.70
2019-02-25T19:50:18.040Z,77.50
2019-02-25T19:52:46.469Z,76.20
2019-02-25T19:55:15.801Z,75.50
2019-02-25T19:57:42.845Z,76.00
2019-02-25T20:00:17.805Z,74.80
2019-02-25T20:02:47.369Z,74.20
2019-02-25T20:05:16.678Z,73.90
2019-02-25T20:07:44.084Z,74.70
2019-02-25T20:10:11.585Z,73.70
2019-02-25T20:12:39.519Z,73.90
2019-02-25T20:15:15.922Z,74.90
2019-02-25T20:17:44.637Z,76.30
2019-02-25T20:20:14.896Z,77.50
2019-02-25T20:22:41.420Z,76.60
2019-02-25T20:25:16.230Z,77.10
2019-02-25T20:27:42.208Z,78.10
2019-02-25T20:30:19.031Z,78.60
2019-02-25T20:32:47.222Z,79.40
2019-02-25T20:35:15.717Z,80.40
2019-02-25T20:37:43.848Z,78.10
2019-02-25T20:40:11.272Z,77.20
2019-02-25T20:42:38.164Z,77.90
2019-02-25T20:45:22.992Z,80.80
2019-02-25T20:47:50.027Z,81.70
2019-02-25T20:50:20.836Z,81.60
2019-02-25T20:52:47.550Z,81.60
2019-02-25T20:55:14.204Z,79.80
2019-02-25T20:57:40.931Z,78.20
2019-02-25T21:00:19.900Z,77.20
2019-02-25T21:02:46.516Z,79.00
2019-02-25T21:05:14.763Z,80.50
2019-02-25T21:07:41.748Z,79.20
2019-02-25T21:10:11.507Z,78.70
2019-02-25T21:12:38.156Z,80.00
2019-02-25T21:15:07.996Z,81.50
2019-02-25T21:17:35.575Z,81.80
2019-02-25T21:20:08.630Z,81.00
2019-02-25T21:22:36.691Z,80.80
2019-02-25T21:25:07.245Z,80.60
2019-02-25T21:27:34.750Z,79.80
2019-02-25T21:30:08.420Z,78.80
2019-02-25T21:32:35.097Z,78.80
2019-02-25T21:35:04.170Z,78.30
2019-02-25T21:37:30.313Z,77.50
2019-02-25T21:39:58.275Z,78.10
2019-02-25T21:42:26.838Z,78.20
2019-02-25T21:44:54.697Z,78.10
2019-02-25T21:47:23.923Z,78.00
2019-02-25T21:49:54.710Z,78.10
2019-02-25T21:52:19.203Z,78.40
2019-02-25T21:54:45.848Z,80.50
2019-02-25T21:57:14.485Z,81.50
2019-02-25T21:59:41.202Z,80.10
2019-02-25T22:02:07.876Z,78.60
2019-02-25T22:04:38.531Z,80.00
2019-02-25T22:07:03.120Z,82.50
2019-02-25T22:09:36.393Z,82.90
2019-02-25T22:11:58.260Z,84.60
2019-02-25T22:14:25.593Z,82.30
2019-02-25T22:16:54.292Z,83.00
2019-02-25T22:19:21.045Z,81.70
2019-02-25T22:21:51.533Z,80.60
2019-02-25T22:24:16.236Z,79.70
2019-02-25T22:26:42.861Z,81.20
2019-02-25T22:29:09.584Z,80.00
2019-02-25T22:31:37.290Z,79.50
2019-02-25T22:34:06.764Z,80.10
2019-02-25T22:36:33.187Z,81.60
2019-02-25T22:39:01.777Z,80.80
2019-02-25T22:41:28.384Z,83.00
2019-02-25T22:43:55.024Z,82.80
2019-02-25T22:46:25.870Z,85.00
2019-02-25T22:48:50.118Z,85.50
2019-02-25T22:51:16.796Z,85.90
2019-02-25T22:53:43.428Z,83.90
2019-02-25T22:56:13.288Z,82.40
2019-02-25T22:59:00.322Z,81.50
2019-02-25T23:01:26.839Z,82.70
2019-02-25T23:03:55.130Z,83.50
2019-02-25T23:06:25.435Z,82.50
2019-02-25T23:08:55.832Z,82.20
2019-02-25T23:11:24.357Z,83.10
2019-02-25T23:13:52.549Z,83.40
2019-02-25T23:16:20.818Z,82.70
2019-02-25T23:18:48.123Z,82.00
2019-02-25T23:21:23.439Z,80.80
2019-02-25T23:23:43.357Z,80.30
2019-02-25T23:26:10.835Z,81.10
2019-02-25T23:28:38.902Z,81.50
2019-02-25T23:31:05.545Z,83.10
2019-02-25T23:33:32.217Z,83.80
2019-02-25T23:35:58.868Z,83.60
2019-02-25T23:38:25.556Z,84.40
2019-02-25T23:40:52.408Z,84.80
2019-02-25T23:43:19.173Z,83.20
2019-02-25T23:45:46.400Z,82.60
2019-02-25T23:48:13.152Z,82.70
2019-02-25T23:50:39.824Z,82.30
2019-02-25T23:53:06.566Z,82.90
2019-02-25T23:55:33.318Z,82.50
2019-02-25T23:57:59.874Z,82.90
